Terminal Aerodrome Forecast
Issued by NWS Louisville, KY

Home | Current Version | Previous Version | Text Only | Print | Product List | Glossary On
Versions: 1 2 3 4 5 6 7 8 9 10 11 12 13 14
000
FTUS43 KLMK 200841 AAA
TAFLEX
TAF AMD
KLEX 200841Z 2009/2106 16003KT P6SM SKC
     FM201000 00000KT 3SM BR SKC
      TEMPO 2010/2012 1SM BR SKC
     FM201300 15005KT P6SM FEW250=

USA.gov is the U.S. government's official web portal to all federal, state and local government web resources and services.